sensor_id;sensor_type;location;lat;lon;timestamp;P1;durP1;ratioP1;P2;durP2;ratioP2
77625;SDS011;66794;43.764;10.436;2023-06-24T00:00:56;21.48;;;6.47;;
77625;SDS011;66794;43.764;10.436;2023-06-24T00:03:42;18.52;;;6.35;;
77625;SDS011;66794;43.764;10.436;2023-06-24T00:06:32;21.38;;;6.50;;
77625;SDS011;66794;43.764;10.436;2023-06-24T00:09:17;13.77;;;6.03;;
77625;SDS011;66794;43.764;10.436;2023-06-24T00:12:04;15.48;;;6.22;;
77625;SDS011;66794;43.764;10.436;2023-06-24T00:14:50;13.35;;;6.07;;
77625;SDS011;66794;43.764;10.436;2023-06-24T00:17:36;14.18;;;6.65;;
77625;SDS011;66794;43.764;10.436;2023-06-24T00:20:21;13.13;;;6.63;;
77625;SDS011;66794;43.764;10.436;2023-06-24T00:23:07;15.25;;;5.88;;
77625;SDS011;66794;43.764;10.436;2023-06-24T00:25:53;13.70;;;5.72;;
77625;SDS011;66794;43.764;10.436;2023-06-24T00:28:39;14.15;;;6.10;;
77625;SDS011;66794;43.764;10.436;2023-06-24T00:31:25;13.80;;;5.90;;
77625;SDS011;66794;43.764;10.436;2023-06-24T00:34:11;15.85;;;5.57;;
77625;SDS011;66794;43.764;10.436;2023-06-24T00:36:57;13.95;;;5.20;;
77625;SDS011;66794;43.764;10.436;2023-06-24T00:39:42;13.52;;;6.05;;
77625;SDS011;66794;43.764;10.436;2023-06-24T00:42:28;9.25;;;5.95;;
77625;SDS011;66794;43.764;10.436;2023-06-24T00:45:14;11.40;;;6.13;;
77625;SDS011;66794;43.764;10.436;2023-06-24T00:48:03;14.20;;;5.85;;
77625;SDS011;66794;43.764;10.436;2023-06-24T00:50:49;10.45;;;5.65;;
77625;SDS011;66794;43.764;10.436;2023-06-24T00:53:35;18.65;;;6.28;;
77625;SDS011;66794;43.764;10.436;2023-06-24T00:56:21;13.50;;;6.60;;
77625;SDS011;66794;43.764;10.436;2023-06-24T00:59:12;13.52;;;6.32;;
77625;SDS011;66794;43.764;10.436;2023-06-24T01:02:00;15.75;;;6.05;;
77625;SDS011;66794;43.764;10.436;2023-06-24T01:04:47;12.88;;;5.88;;
77625;SDS011;66794;43.764;10.436;2023-06-24T01:07:33;16.38;;;5.88;;
77625;SDS011;66794;43.764;10.436;2023-06-24T01:10:22;14.60;;;6.00;;
77625;SDS011;66794;43.764;10.436;2023-06-24T01:13:09;16.73;;;6.25;;
77625;SDS011;66794;43.764;10.436;2023-06-24T01:15:55;17.02;;;6.57;;
77625;SDS011;66794;43.764;10.436;2023-06-24T01:18:46;15.80;;;6.00;;
77625;SDS011;66794;43.764;10.436;2023-06-24T01:21:42;11.07;;;5.80;;
77625;SDS011;66794;43.764;10.436;2023-06-24T01:34:37;11.63;;;6.43;;
77625;SDS011;66794;43.764;10.436;2023-06-24T01:37:32;14.40;;;5.50;;
77625;SDS011;66794;43.764;10.436;2023-06-24T01:43:19;11.30;;;5.15;;
77625;SDS011;66794;43.764;10.436;2023-06-24T01:46:08;11.25;;;5.13;;
77625;SDS011;66794;43.764;10.436;2023-06-24T01:48:59;14.73;;;5.90;;
77625;SDS011;66794;43.764;10.436;2023-06-24T01:51:48;15.48;;;5.88;;
77625;SDS011;66794;43.764;10.436;2023-06-24T01:54:35;15.52;;;5.88;;
77625;SDS011;66794;43.764;10.436;2023-06-24T01:57:23;14.02;;;5.78;;
77625;SDS011;66794;43.764;10.436;2023-06-24T02:00:11;13.30;;;5.90;;
77625;SDS011;66794;43.764;10.436;2023-06-24T02:02:58;13.82;;;6.32;;
77625;SDS011;66794;43.764;10.436;2023-06-24T02:05:45;16.33;;;6.35;;
77625;SDS011;66794;43.764;10.436;2023-06-24T02:08:33;13.13;;;6.40;;
77625;SDS011;66794;43.764;10.436;2023-06-24T02:11:21;16.98;;;6.45;;
77625;SDS011;66794;43.764;10.436;2023-06-24T02:14:09;16.75;;;6.50;;
77625;SDS011;66794;43.764;10.436;2023-06-24T02:16:56;12.40;;;5.55;;
77625;SDS011;66794;43.764;10.436;2023-06-24T02:19:46;14.32;;;6.45;;
77625;SDS011;66794;43.764;10.436;2023-06-24T02:22:34;14.57;;;5.63;;
77625;SDS011;66794;43.764;10.436;2023-06-24T02:25:21;13.65;;;6.55;;
77625;SDS011;66794;43.764;10.436;2023-06-24T02:28:09;16.33;;;6.60;;
77625;SDS011;66794;43.764;10.436;2023-06-24T02:30:55;13.73;;;6.93;;
77625;SDS011;66794;43.764;10.436;2023-06-24T02:33:42;14.23;;;6.03;;
77625;SDS011;66794;43.764;10.436;2023-06-24T02:36:28;12.35;;;5.85;;
77625;SDS011;66794;43.764;10.436;2023-06-24T02:39:14;13.55;;;6.32;;
77625;SDS011;66794;43.764;10.436;2023-06-24T02:41:59;14.50;;;6.57;;
77625;SDS011;66794;43.764;10.436;2023-06-24T02:44:45;11.20;;;6.00;;
77625;SDS011;66794;43.764;10.436;2023-06-24T02:47:31;13.50;;;6.25;;
77625;SDS011;66794;43.764;10.436;2023-06-24T02:50:19;14.32;;;6.10;;
77625;SDS011;66794;43.764;10.436;2023-06-24T02:53:05;12.70;;;6.15;;
77625;SDS011;66794;43.764;10.436;2023-06-24T02:55:51;11.32;;;5.95;;
77625;SDS011;66794;43.764;10.436;2023-06-24T02:58:39;14.45;;;5.85;;
77625;SDS011;66794;43.764;10.436;2023-06-24T03:01:26;11.95;;;6.55;;
77625;SDS011;66794;43.764;10.436;2023-06-24T03:04:12;12.30;;;6.55;;
77625;SDS011;66794;43.764;10.436;2023-06-24T03:06:59;14.63;;;6.40;;
77625;SDS011;66794;43.764;10.436;2023-06-24T03:09:45;12.80;;;6.70;;
77625;SDS011;66794;43.764;10.436;2023-06-24T03:12:31;13.30;;;7.25;;
77625;SDS011;66794;43.764;10.436;2023-06-24T03:15:17;14.77;;;6.47;;
77625;SDS011;66794;43.764;10.436;2023-06-24T03:18:03;11.63;;;6.88;;
77625;SDS011;66794;43.764;10.436;2023-06-24T03:20:49;14.98;;;7.40;;
77625;SDS011;66794;43.764;10.436;2023-06-24T03:23:35;16.80;;;7.60;;
77625;SDS011;66794;43.764;10.436;2023-06-24T03:26:21;14.60;;;7.85;;
77625;SDS011;66794;43.764;10.436;2023-06-24T03:29:07;17.20;;;7.22;;
77625;SDS011;66794;43.764;10.436;2023-06-24T03:31:53;13.68;;;6.85;;
77625;SDS011;66794;43.764;10.436;2023-06-24T03:34:38;13.20;;;6.80;;
77625;SDS011;66794;43.764;10.436;2023-06-24T03:37:24;10.32;;;6.38;;
77625;SDS011;66794;43.764;10.436;2023-06-24T03:40:10;17.80;;;6.43;;
77625;SDS011;66794;43.764;10.436;2023-06-24T03:42:57;19.83;;;7.60;;
77625;SDS011;66794;43.764;10.436;2023-06-24T03:45:42;14.43;;;6.97;;
77625;SDS011;66794;43.764;10.436;2023-06-24T03:48:28;15.68;;;6.40;;
77625;SDS011;66794;43.764;10.436;2023-06-24T03:51:14;13.77;;;6.75;;
77625;SDS011;66794;43.764;10.436;2023-06-24T03:54:00;16.42;;;6.60;;
77625;SDS011;66794;43.764;10.436;2023-06-24T03:56:46;14.57;;;7.15;;
77625;SDS011;66794;43.764;10.436;2023-06-24T03:59:31;13.18;;;6.65;;
77625;SDS011;66794;43.764;10.436;2023-06-24T04:02:17;12.60;;;7.25;;
77625;SDS011;66794;43.764;10.436;2023-06-24T04:05:03;11.25;;;6.90;;
77625;SDS011;66794;43.764;10.436;2023-06-24T04:07:51;13.35;;;6.32;;
77625;SDS011;66794;43.764;10.436;2023-06-24T04:10:37;11.63;;;6.35;;
77625;SDS011;66794;43.764;10.436;2023-06-24T04:13:23;17.08;;;7.50;;
77625;SDS011;66794;43.764;10.436;2023-06-24T04:16:09;18.52;;;6.95;;
77625;SDS011;66794;43.764;10.436;2023-06-24T04:18:55;11.82;;;6.85;;
77625;SDS011;66794;43.764;10.436;2023-06-24T04:21:40;16.90;;;6.80;;
77625;SDS011;66794;43.764;10.436;2023-06-24T04:24:26;13.38;;;7.57;;
77625;SDS011;66794;43.764;10.436;2023-06-24T04:27:12;16.38;;;8.35;;
77625;SDS011;66794;43.764;10.436;2023-06-24T04:29:58;16.35;;;7.45;;
77625;SDS011;66794;43.764;10.436;2023-06-24T04:32:43;14.25;;;8.57;;
77625;SDS011;66794;43.764;10.436;2023-06-24T04:35:29;13.02;;;8.10;;
77625;SDS011;66794;43.764;10.436;2023-06-24T04:38:15;18.65;;;8.18;;
77625;SDS011;66794;43.764;10.436;2023-06-24T04:41:03;23.33;;;8.60;;
77625;SDS011;66794;43.764;10.436;2023-06-24T04:43:49;16.33;;;8.32;;
77625;SDS011;66794;43.764;10.436;2023-06-24T04:46:35;16.05;;;7.68;;
77625;SDS011;66794;43.764;10.436;2023-06-24T04:49:21;15.07;;;8.43;;
77625;SDS011;66794;43.764;10.436;2023-06-24T04:52:07;21.67;;;9.00;;
77625;SDS011;66794;43.764;10.436;2023-06-24T04:54:53;21.23;;;10.52;;
77625;SDS011;66794;43.764;10.436;2023-06-24T04:57:38;17.42;;;10.40;;
77625;SDS011;66794;43.764;10.436;2023-06-24T05:00:24;19.38;;;10.93;;
77625;SDS011;66794;43.764;10.436;2023-06-24T05:03:10;17.60;;;10.70;;
77625;SDS011;66794;43.764;10.436;2023-06-24T05:05:56;18.45;;;11.43;;
77625;SDS011;66794;43.764;10.436;2023-06-24T05:08:41;18.40;;;10.30;;
77625;SDS011;66794;43.764;10.436;2023-06-24T05:11:27;17.73;;;11.25;;
77625;SDS011;66794;43.764;10.436;2023-06-24T05:14:13;19.70;;;10.10;;
77625;SDS011;66794;43.764;10.436;2023-06-24T05:16:59;18.58;;;10.63;;
77625;SDS011;66794;43.764;10.436;2023-06-24T05:19:44;18.70;;;10.68;;
77625;SDS011;66794;43.764;10.436;2023-06-24T05:22:30;21.40;;;12.43;;
77625;SDS011;66794;43.764;10.436;2023-06-24T05:25:16;22.70;;;12.90;;
77625;SDS011;66794;43.764;10.436;2023-06-24T05:28:01;19.70;;;11.75;;
77625;SDS011;66794;43.764;10.436;2023-06-24T05:30:47;22.40;;;11.10;;
77625;SDS011;66794;43.764;10.436;2023-06-24T05:33:33;20.42;;;11.40;;
77625;SDS011;66794;43.764;10.436;2023-06-24T05:36:19;18.55;;;11.48;;
77625;SDS011;66794;43.764;10.436;2023-06-24T05:39:05;20.13;;;11.95;;
77625;SDS011;66794;43.764;10.436;2023-06-24T05:41:53;17.35;;;11.30;;
77625;SDS011;66794;43.764;10.436;2023-06-24T05:44:39;23.35;;;12.65;;
77625;SDS011;66794;43.764;10.436;2023-06-24T05:47:24;19.55;;;11.98;;
77625;SDS011;66794;43.764;10.436;2023-06-24T05:50:10;16.30;;;11.10;;
77625;SDS011;66794;43.764;10.436;2023-06-24T05:52:56;21.65;;;12.32;;
77625;SDS011;66794;43.764;10.436;2023-06-24T05:55:42;21.63;;;11.68;;
77625;SDS011;66794;43.764;10.436;2023-06-24T05:58:28;20.02;;;12.13;;
77625;SDS011;66794;43.764;10.436;2023-06-24T06:01:14;19.33;;;11.65;;
77625;SDS011;66794;43.764;10.436;2023-06-24T06:04:00;25.80;;;13.38;;
77625;SDS011;66794;43.764;10.436;2023-06-24T06:06:46;25.95;;;13.00;;
77625;SDS011;66794;43.764;10.436;2023-06-24T06:09:32;24.55;;;12.82;;
77625;SDS011;66794;43.764;10.436;2023-06-24T06:12:17;19.75;;;12.38;;
77625;SDS011;66794;43.764;10.436;2023-06-24T06:15:03;24.45;;;11.90;;
77625;SDS011;66794;43.764;10.436;2023-06-24T06:17:52;18.73;;;12.02;;
77625;SDS011;66794;43.764;10.436;2023-06-24T06:20:38;19.48;;;11.95;;
77625;SDS011;66794;43.764;10.436;2023-06-24T06:23:24;17.25;;;9.70;;
77625;SDS011;66794;43.764;10.436;2023-06-24T06:26:11;15.95;;;9.15;;
77625;SDS011;66794;43.764;10.436;2023-06-24T06:28:57;12.85;;;8.32;;
77625;SDS011;66794;43.764;10.436;2023-06-24T06:31:42;15.60;;;8.57;;
77625;SDS011;66794;43.764;10.436;2023-06-24T06:34:28;18.45;;;9.20;;
77625;SDS011;66794;43.764;10.436;2023-06-24T06:37:14;13.90;;;8.38;;
77625;SDS011;66794;43.764;10.436;2023-06-24T06:39:59;16.08;;;8.10;;
77625;SDS011;66794;43.764;10.436;2023-06-24T06:42:45;12.20;;;8.05;;
77625;SDS011;66794;43.764;10.436;2023-06-24T06:45:31;22.33;;;8.63;;
77625;SDS011;66794;43.764;10.436;2023-06-24T06:48:17;14.10;;;7.97;;
77625;SDS011;66794;43.764;10.436;2023-06-24T06:51:03;10.05;;;6.70;;
77625;SDS011;66794;43.764;10.436;2023-06-24T06:53:48;13.10;;;7.53;;
77625;SDS011;66794;43.764;10.436;2023-06-24T06:56:34;10.80;;;7.07;;
77625;SDS011;66794;43.764;10.436;2023-06-24T06:59:20;9.02;;;6.47;;
77625;SDS011;66794;43.764;10.436;2023-06-24T07:02:06;10.73;;;6.80;;
77625;SDS011;66794;43.764;10.436;2023-06-24T07:04:52;13.25;;;6.70;;
77625;SDS011;66794;43.764;10.436;2023-06-24T07:07:38;9.13;;;6.65;;
77625;SDS011;66794;43.764;10.436;2023-06-24T07:10:23;9.02;;;6.20;;
77625;SDS011;66794;43.764;10.436;2023-06-24T07:13:09;11.43;;;7.65;;
77625;SDS011;66794;43.764;10.436;2023-06-24T07:15:55;10.98;;;6.00;;
77625;SDS011;66794;43.764;10.436;2023-06-24T07:18:41;13.30;;;6.45;;
77625;SDS011;66794;43.764;10.436;2023-06-24T07:21:26;11.07;;;6.15;;
77625;SDS011;66794;43.764;10.436;2023-06-24T07:24:12;9.43;;;6.28;;
77625;SDS011;66794;43.764;10.436;2023-06-24T07:26:58;11.00;;;6.18;;
77625;SDS011;66794;43.764;10.436;2023-06-24T07:29:44;10.27;;;6.55;;
77625;SDS011;66794;43.764;10.436;2023-06-24T07:32:29;11.38;;;6.65;;
77625;SDS011;66794;43.764;10.436;2023-06-24T07:35:15;11.23;;;6.45;;
77625;SDS011;66794;43.764;10.436;2023-06-24T07:38:01;10.95;;;6.10;;
77625;SDS011;66794;43.764;10.436;2023-06-24T07:40:47;9.45;;;5.80;;
77625;SDS011;66794;43.764;10.436;2023-06-24T07:43:36;9.95;;;6.13;;
77625;SDS011;66794;43.764;10.436;2023-06-24T07:46:22;8.82;;;6.10;;
77625;SDS011;66794;43.764;10.436;2023-06-24T07:49:07;12.35;;;6.13;;
77625;SDS011;66794;43.764;10.436;2023-06-24T07:51:53;8.48;;;6.10;;
77625;SDS011;66794;43.764;10.436;2023-06-24T07:54:39;8.82;;;5.95;;
77625;SDS011;66794;43.764;10.436;2023-06-24T07:57:26;10.65;;;5.80;;
77625;SDS011;66794;43.764;10.436;2023-06-24T08:00:12;10.48;;;5.80;;
77625;SDS011;66794;43.764;10.436;2023-06-24T08:02:59;9.70;;;5.43;;
77625;SDS011;66794;43.764;10.436;2023-06-24T08:05:45;8.63;;;6.00;;
77625;SDS011;66794;43.764;10.436;2023-06-24T08:08:30;8.40;;;6.82;;
77625;SDS011;66794;43.764;10.436;2023-06-24T08:11:16;7.47;;;5.65;;
77625;SDS011;66794;43.764;10.436;2023-06-24T08:14:02;10.88;;;6.10;;
77625;SDS011;66794;43.764;10.436;2023-06-24T08:16:49;10.18;;;5.63;;
77625;SDS011;66794;43.764;10.436;2023-06-24T08:19:35;13.80;;;5.87;;
77625;SDS011;66794;43.764;10.436;2023-06-24T08:22:20;8.98;;;5.82;;
77625;SDS011;66794;43.764;10.436;2023-06-24T08:25:06;7.70;;;5.38;;
77625;SDS011;66794;43.764;10.436;2023-06-24T08:27:52;7.45;;;5.57;;
77625;SDS011;66794;43.764;10.436;2023-06-24T08:30:38;9.18;;;5.28;;
77625;SDS011;66794;43.764;10.436;2023-06-24T08:33:24;9.93;;;5.68;;
77625;SDS011;66794;43.764;10.436;2023-06-24T08:36:10;9.48;;;4.85;;
77625;SDS011;66794;43.764;10.436;2023-06-24T08:38:55;8.05;;;5.28;;
77625;SDS011;66794;43.764;10.436;2023-06-24T08:41:41;8.77;;;4.30;;
77625;SDS011;66794;43.764;10.436;2023-06-24T08:44:27;9.32;;;4.53;;
77625;SDS011;66794;43.764;10.436;2023-06-24T08:47:13;7.40;;;4.40;;
77625;SDS011;66794;43.764;10.436;2023-06-24T08:50:05;7.20;;;4.13;;
77625;SDS011;66794;43.764;10.436;2023-06-24T08:55:43;5.65;;;3.88;;
77625;SDS011;66794;43.764;10.436;2023-06-24T08:58:29;5.80;;;3.80;;
77625;SDS011;66794;43.764;10.436;2023-06-24T09:01:15;4.70;;;3.70;;
77625;SDS011;66794;43.764;10.436;2023-06-24T09:04:01;6.75;;;3.90;;
77625;SDS011;66794;43.764;10.436;2023-06-24T09:06:47;9.93;;;4.43;;
77625;SDS011;66794;43.764;10.436;2023-06-24T09:09:33;5.15;;;3.63;;
77625;SDS011;66794;43.764;10.436;2023-06-24T09:12:27;7.03;;;3.63;;
77625;SDS011;66794;43.764;10.436;2023-06-24T09:15:18;7.32;;;5.13;;
77625;SDS011;66794;43.764;10.436;2023-06-24T09:18:05;6.10;;;4.00;;
77625;SDS011;66794;43.764;10.436;2023-06-24T09:20:51;5.00;;;3.78;;
77625;SDS011;66794;43.764;10.436;2023-06-24T09:23:40;6.90;;;3.83;;
77625;SDS011;66794;43.764;10.436;2023-06-24T09:26:26;6.15;;;3.83;;
77625;SDS011;66794;43.764;10.436;2023-06-24T09:29:13;6.53;;;3.53;;
77625;SDS011;66794;43.764;10.436;2023-06-24T09:32:05;4.32;;;3.50;;
77625;SDS011;66794;43.764;10.436;2023-06-24T09:34:51;4.15;;;3.60;;
77625;SDS011;66794;43.764;10.436;2023-06-24T09:37:39;8.98;;;3.92;;
77625;SDS011;66794;43.764;10.436;2023-06-24T09:40:25;5.25;;;3.40;;
77625;SDS011;66794;43.764;10.436;2023-06-24T09:43:11;5.18;;;3.95;;
77625;SDS011;66794;43.764;10.436;2023-06-24T09:46:06;5.80;;;3.30;;
77625;SDS011;66794;43.764;10.436;2023-06-24T09:48:52;6.90;;;3.80;;
77625;SDS011;66794;43.764;10.436;2023-06-24T09:51:38;8.13;;;3.75;;
77625;SDS011;66794;43.764;10.436;2023-06-24T09:54:26;5.88;;;3.60;;
77625;SDS011;66794;43.764;10.436;2023-06-24T09:57:16;7.00;;;3.90;;
77625;SDS011;66794;43.764;10.436;2023-06-24T10:00:08;4.80;;;3.58;;
77625;SDS011;66794;43.764;10.436;2023-06-24T10:02:55;4.35;;;3.50;;
77625;SDS011;66794;43.764;10.436;2023-06-24T10:05:41;7.60;;;3.60;;
77625;SDS011;66794;43.764;10.436;2023-06-24T10:08:29;6.13;;;3.83;;
77625;SDS011;66794;43.764;10.436;2023-06-24T10:11:16;7.32;;;3.95;;
77625;SDS011;66794;43.764;10.436;2023-06-24T10:14:01;5.85;;;3.47;;
77625;SDS011;66794;43.764;10.436;2023-06-24T10:16:47;5.65;;;3.58;;
77625;SDS011;66794;43.764;10.436;2023-06-24T10:19:40;6.43;;;3.95;;
77625;SDS011;66794;43.764;10.436;2023-06-24T10:22:26;5.15;;;3.75;;
77625;SDS011;66794;43.764;10.436;2023-06-24T10:25:15;4.38;;;3.65;;
77625;SDS011;66794;43.764;10.436;2023-06-24T10:28:01;5.63;;;3.92;;
77625;SDS011;66794;43.764;10.436;2023-06-24T10:30:55;7.20;;;3.70;;
77625;SDS011;66794;43.764;10.436;2023-06-24T10:33:41;5.50;;;3.08;;
77625;SDS011;66794;43.764;10.436;2023-06-24T10:36:33;4.53;;;3.30;;
77625;SDS011;66794;43.764;10.436;2023-06-24T10:42:43;4.65;;;3.50;;
77625;SDS011;66794;43.764;10.436;2023-06-24T10:45:29;6.47;;;3.47;;
77625;SDS011;66794;43.764;10.436;2023-06-24T10:48:15;6.53;;;3.40;;
77625;SDS011;66794;43.764;10.436;2023-06-24T10:51:01;4.38;;;3.38;;
77625;SDS011;66794;43.764;10.436;2023-06-24T10:53:47;7.15;;;3.70;;
77625;SDS011;66794;43.764;10.436;2023-06-24T10:56:32;4.53;;;3.40;;
77625;SDS011;66794;43.764;10.436;2023-06-24T10:59:18;5.38;;;3.22;;
77625;SDS011;66794;43.764;10.436;2023-06-24T11:02:04;3.90;;;3.20;;
77625;SDS011;66794;43.764;10.436;2023-06-24T11:04:50;6.80;;;3.08;;
77625;SDS011;66794;43.764;10.436;2023-06-24T11:07:37;5.60;;;3.47;;
77625;SDS011;66794;43.764;10.436;2023-06-24T11:10:24;3.90;;;2.85;;
77625;SDS011;66794;43.764;10.436;2023-06-24T11:13:10;5.93;;;3.38;;
77625;SDS011;66794;43.764;10.436;2023-06-24T11:15:59;6.68;;;3.47;;
77625;SDS011;66794;43.764;10.436;2023-06-24T11:18:45;12.38;;;3.60;;
77625;SDS011;66794;43.764;10.436;2023-06-24T11:21:31;6.22;;;3.15;;
77625;SDS011;66794;43.764;10.436;2023-06-24T11:24:17;3.42;;;2.88;;
77625;SDS011;66794;43.764;10.436;2023-06-24T11:27:03;6.35;;;3.30;;
77625;SDS011;66794;43.764;10.436;2023-06-24T11:29:51;5.03;;;3.58;;
77625;SDS011;66794;43.764;10.436;2023-06-24T11:32:38;4.15;;;3.50;;
77625;SDS011;66794;43.764;10.436;2023-06-24T11:35:24;5.75;;;3.20;;
77625;SDS011;66794;43.764;10.436;2023-06-24T11:38:11;4.65;;;3.30;;
77625;SDS011;66794;43.764;10.436;2023-06-24T11:40:57;7.13;;;4.13;;
77625;SDS011;66794;43.764;10.436;2023-06-24T11:43:46;5.07;;;3.70;;
77625;SDS011;66794;43.764;10.436;2023-06-24T11:46:33;6.95;;;3.80;;
77625;SDS011;66794;43.764;10.436;2023-06-24T11:49:20;6.38;;;4.30;;
77625;SDS011;66794;43.764;10.436;2023-06-24T11:52:06;5.15;;;4.13;;
77625;SDS011;66794;43.764;10.436;2023-06-24T11:54:52;8.80;;;6.35;;
77625;SDS011;66794;43.764;10.436;2023-06-24T11:57:51;4.25;;;3.70;;
77625;SDS011;66794;43.764;10.436;2023-06-24T12:00:40;6.93;;;4.22;;
77625;SDS011;66794;43.764;10.436;2023-06-24T12:03:29;5.03;;;3.60;;
77625;SDS011;66794;43.764;10.436;2023-06-24T12:06:17;5.25;;;3.85;;
77625;SDS011;66794;43.764;10.436;2023-06-24T12:09:03;7.05;;;3.63;;
77625;SDS011;66794;43.764;10.436;2023-06-24T12:11:49;4.63;;;3.20;;
77625;SDS011;66794;43.764;10.436;2023-06-24T12:14:35;8.55;;;5.28;;
77625;SDS011;66794;43.764;10.436;2023-06-24T12:17:21;8.90;;;5.88;;
77625;SDS011;66794;43.764;10.436;2023-06-24T12:20:07;9.02;;;5.05;;
77625;SDS011;66794;43.764;10.436;2023-06-24T12:22:53;5.30;;;3.30;;
77625;SDS011;66794;43.764;10.436;2023-06-24T12:25:39;7.88;;;4.97;;
77625;SDS011;66794;43.764;10.436;2023-06-24T12:28:25;9.75;;;5.53;;
77625;SDS011;66794;43.764;10.436;2023-06-24T12:31:11;6.70;;;4.78;;
77625;SDS011;66794;43.764;10.436;2023-06-24T12:33:57;9.30;;;4.95;;
77625;SDS011;66794;43.764;10.436;2023-06-24T12:36:42;13.93;;;5.70;;
77625;SDS011;66794;43.764;10.436;2023-06-24T12:39:28;9.60;;;5.70;;
77625;SDS011;66794;43.764;10.436;2023-06-24T12:42:14;9.05;;;5.13;;
77625;SDS011;66794;43.764;10.436;2023-06-24T12:45:00;12.20;;;5.60;;
77625;SDS011;66794;43.764;10.436;2023-06-24T12:47:46;7.72;;;5.28;;
77625;SDS011;66794;43.764;10.436;2023-06-24T12:50:31;7.28;;;5.15;;
77625;SDS011;66794;43.764;10.436;2023-06-24T12:53:17;8.48;;;5.22;;
77625;SDS011;66794;43.764;10.436;2023-06-24T12:56:03;6.88;;;5.70;;
77625;SDS011;66794;43.764;10.436;2023-06-24T12:58:49;7.50;;;5.43;;
77625;SDS011;66794;43.764;10.436;2023-06-24T13:01:34;6.80;;;4.63;;
77625;SDS011;66794;43.764;10.436;2023-06-24T13:04:20;9.98;;;5.20;;
77625;SDS011;66794;43.764;10.436;2023-06-24T13:07:07;9.27;;;5.13;;
77625;SDS011;66794;43.764;10.436;2023-06-24T13:09:55;7.22;;;5.28;;
77625;SDS011;66794;43.764;10.436;2023-06-24T13:12:40;7.50;;;4.70;;
77625;SDS011;66794;43.764;10.436;2023-06-24T13:15:26;6.50;;;4.90;;
77625;SDS011;66794;43.764;10.436;2023-06-24T13:18:12;7.25;;;5.13;;
77625;SDS011;66794;43.764;10.436;2023-06-24T13:20:58;8.18;;;5.38;;
77625;SDS011;66794;43.764;10.436;2023-06-24T13:23:44;9.00;;;5.22;;
77625;SDS011;66794;43.764;10.436;2023-06-24T13:26:31;8.07;;;5.10;;
77625;SDS011;66794;43.764;10.436;2023-06-24T13:29:17;7.35;;;4.95;;
77625;SDS011;66794;43.764;10.436;2023-06-24T13:32:05;6.28;;;4.57;;
77625;SDS011;66794;43.764;10.436;2023-06-24T13:34:51;7.15;;;4.70;;
77625;SDS011;66794;43.764;10.436;2023-06-24T13:37:37;6.78;;;4.63;;
77625;SDS011;66794;43.764;10.436;2023-06-24T13:40:24;6.72;;;5.15;;
77625;SDS011;66794;43.764;10.436;2023-06-24T13:43:09;11.60;;;5.22;;
77625;SDS011;66794;43.764;10.436;2023-06-24T13:45:55;12.05;;;5.43;;
77625;SDS011;66794;43.764;10.436;2023-06-24T13:48:41;9.85;;;5.93;;
77625;SDS011;66794;43.764;10.436;2023-06-24T13:51:28;9.07;;;5.75;;
77625;SDS011;66794;43.764;10.436;2023-06-24T13:54:14;11.02;;;5.85;;
77625;SDS011;66794;43.764;10.436;2023-06-24T13:57:00;8.70;;;5.05;;
77625;SDS011;66794;43.764;10.436;2023-06-24T13:59:46;7.90;;;4.85;;
77625;SDS011;66794;43.764;10.436;2023-06-24T14:02:31;15.82;;;5.75;;
77625;SDS011;66794;43.764;10.436;2023-06-24T14:05:17;8.77;;;4.75;;
77625;SDS011;66794;43.764;10.436;2023-06-24T14:08:03;8.98;;;4.90;;
77625;SDS011;66794;43.764;10.436;2023-06-24T14:10:49;7.30;;;4.95;;
77625;SDS011;66794;43.764;10.436;2023-06-24T14:13:35;9.05;;;5.22;;
77625;SDS011;66794;43.764;10.436;2023-06-24T14:16:21;10.25;;;5.13;;
77625;SDS011;66794;43.764;10.436;2023-06-24T14:19:07;8.18;;;4.95;;
77625;SDS011;66794;43.764;10.436;2023-06-24T14:21:53;9.30;;;4.88;;
77625;SDS011;66794;43.764;10.436;2023-06-24T14:24:39;8.73;;;5.50;;
77625;SDS011;66794;43.764;10.436;2023-06-24T14:27:25;11.80;;;5.10;;
77625;SDS011;66794;43.764;10.436;2023-06-24T14:30:11;7.85;;;4.60;;
77625;SDS011;66794;43.764;10.436;2023-06-24T14:32:57;8.25;;;5.18;;
77625;SDS011;66794;43.764;10.436;2023-06-24T14:35:43;9.55;;;5.40;;
77625;SDS011;66794;43.764;10.436;2023-06-24T14:38:29;8.75;;;4.97;;
77625;SDS011;66794;43.764;10.436;2023-06-24T14:41:14;9.30;;;5.30;;
77625;SDS011;66794;43.764;10.436;2023-06-24T14:44:00;7.95;;;5.03;;
77625;SDS011;66794;43.764;10.436;2023-06-24T14:46:46;9.57;;;5.25;;
77625;SDS011;66794;43.764;10.436;2023-06-24T14:49:32;8.00;;;4.68;;
77625;SDS011;66794;43.764;10.436;2023-06-24T14:52:18;9.55;;;5.55;;
77625;SDS011;66794;43.764;10.436;2023-06-24T14:55:03;10.35;;;5.50;;
77625;SDS011;66794;43.764;10.436;2023-06-24T14:57:49;8.20;;;5.03;;
77625;SDS011;66794;43.764;10.436;2023-06-24T15:00:35;10.40;;;5.90;;
77625;SDS011;66794;43.764;10.436;2023-06-24T15:03:21;9.50;;;5.68;;
77625;SDS011;66794;43.764;10.436;2023-06-24T15:06:07;7.97;;;4.85;;
77625;SDS011;66794;43.764;10.436;2023-06-24T15:08:52;9.48;;;5.95;;
77625;SDS011;66794;43.764;10.436;2023-06-24T15:11:38;7.68;;;5.07;;
77625;SDS011;66794;43.764;10.436;2023-06-24T15:14:24;8.45;;;5.25;;
77625;SDS011;66794;43.764;10.436;2023-06-24T15:17:09;8.95;;;5.57;;
77625;SDS011;66794;43.764;10.436;2023-06-24T15:19:55;9.90;;;5.90;;
77625;SDS011;66794;43.764;10.436;2023-06-24T15:22:41;9.70;;;5.15;;
77625;SDS011;66794;43.764;10.436;2023-06-24T15:25:27;10.63;;;5.60;;
77625;SDS011;66794;43.764;10.436;2023-06-24T15:28:13;6.32;;;4.70;;
77625;SDS011;66794;43.764;10.436;2023-06-24T15:31:02;11.90;;;5.38;;
77625;SDS011;66794;43.764;10.436;2023-06-24T15:33:47;5.90;;;4.70;;
77625;SDS011;66794;43.764;10.436;2023-06-24T15:36:33;7.80;;;4.85;;
77625;SDS011;66794;43.764;10.436;2023-06-24T15:39:19;10.35;;;5.20;;
77625;SDS011;66794;43.764;10.436;2023-06-24T15:42:05;7.32;;;4.80;;
77625;SDS011;66794;43.764;10.436;2023-06-24T15:44:51;7.28;;;4.82;;
77625;SDS011;66794;43.764;10.436;2023-06-24T15:47:36;9.63;;;4.35;;
77625;SDS011;66794;43.764;10.436;2023-06-24T15:50:23;7.68;;;5.00;;
77625;SDS011;66794;43.764;10.436;2023-06-24T15:53:09;9.30;;;4.93;;
77625;SDS011;66794;43.764;10.436;2023-06-24T15:55:55;6.13;;;4.57;;
77625;SDS011;66794;43.764;10.436;2023-06-24T15:58:40;8.60;;;4.55;;
77625;SDS011;66794;43.764;10.436;2023-06-24T16:01:26;9.60;;;4.72;;
77625;SDS011;66794;43.764;10.436;2023-06-24T16:04:12;8.15;;;4.88;;
77625;SDS011;66794;43.764;10.436;2023-06-24T16:06:58;7.95;;;5.47;;
77625;SDS011;66794;43.764;10.436;2023-06-24T16:09:43;7.95;;;4.63;;
77625;SDS011;66794;43.764;10.436;2023-06-24T16:12:29;9.45;;;5.47;;
77625;SDS011;66794;43.764;10.436;2023-06-24T16:15:15;9.85;;;5.10;;
77625;SDS011;66794;43.764;10.436;2023-06-24T16:18:01;11.75;;;4.97;;
77625;SDS011;66794;43.764;10.436;2023-06-24T16:20:46;8.50;;;4.65;;
77625;SDS011;66794;43.764;10.436;2023-06-24T16:23:32;7.93;;;4.90;;
77625;SDS011;66794;43.764;10.436;2023-06-24T16:26:18;10.85;;;5.13;;
77625;SDS011;66794;43.764;10.436;2023-06-24T16:29:04;7.38;;;4.40;;
77625;SDS011;66794;43.764;10.436;2023-06-24T16:31:49;6.88;;;4.38;;
77625;SDS011;66794;43.764;10.436;2023-06-24T16:34:35;9.60;;;5.07;;
77625;SDS011;66794;43.764;10.436;2023-06-24T16:37:21;10.50;;;4.82;;